createdAt,value
2022-11-10T00:00:57.853Z,0
2022-11-10T00:03:03.705Z,0
2022-11-10T00:04:07.007Z,0
2022-11-10T00:05:10.772Z,0
2022-11-10T00:06:13.845Z,0
2022-11-10T00:08:20.360Z,0
2022-11-10T00:10:26.723Z,0
2022-11-10T00:11:29.871Z,0
2022-11-10T00:13:35.963Z,0
2022-11-10T00:15:42.507Z,0
2022-11-10T00:17:48.845Z,0
2022-11-10T00:18:52.294Z,0
2022-11-10T00:20:59.111Z,0
2022-11-10T00:23:05.644Z,0
2022-11-10T00:25:11.779Z,0
2022-11-10T00:26:14.935Z,0
2022-11-10T00:28:21.036Z,0
2022-11-10T00:30:27.691Z,0
2022-11-10T00:32:33.870Z,0
2022-11-10T00:33:36.673Z,0
2022-11-10T00:35:43.489Z,0
2022-11-10T00:37:50.026Z,0
2022-11-10T00:39:55.837Z,0
2022-11-10T00:40:58.917Z,0
2022-11-10T00:43:04.977Z,0
2022-11-10T00:45:10.869Z,0
2022-11-10T00:47:16.190Z,0
2022-11-10T00:48:18.709Z,0
2022-11-10T00:50:24.106Z,0
2022-11-10T00:52:31.037Z,0
2022-11-10T00:54:37.368Z,0
2022-11-10T00:55:40.755Z,0
2022-11-10T00:57:46.699Z,0
2022-11-10T00:59:52.645Z,0
2022-11-10T01:01:59.467Z,0
2022-11-10T01:03:02.896Z,0
2022-11-10T01:05:07.981Z,0
2022-11-10T01:07:15.065Z,0
2022-11-10T01:09:21.627Z,0
2022-11-10T01:10:24.796Z,0
2022-11-10T01:12:31.386Z,0
2022-11-10T01:14:37.245Z,0
2022-11-10T01:16:43.891Z,0
2022-11-10T01:17:47.194Z,0
2022-11-10T01:19:52.647Z,0
2022-11-10T01:21:58.602Z,0
2022-11-10T01:24:05.236Z,0
2022-11-10T01:25:08.679Z,0
2022-11-10T01:27:15.061Z,0
2022-11-10T01:29:22.036Z,0
2022-11-10T01:31:29.187Z,0
2022-11-10T01:32:33.258Z,0
2022-11-10T01:33:36.731Z,0
2022-11-10T01:34:39.844Z,0
2022-11-10T01:36:45.658Z,0
2022-11-10T01:37:49.014Z,0
2022-11-10T01:38:52.029Z,0
2022-11-10T01:39:55.952Z,0
2022-11-10T01:42:02.617Z,0
2022-11-10T01:43:05.451Z,0
2022-11-10T01:44:08.537Z,0
2022-11-10T01:45:11.357Z,0
2022-11-10T01:47:17.058Z,0
2022-11-10T01:48:20.545Z,0
2022-11-10T01:50:26.213Z,0
2022-11-10T01:52:33.001Z,0
2022-11-10T01:53:35.990Z,0
2022-11-10T01:55:42.139Z,0
2022-11-10T01:57:48.913Z,0
2022-11-10T01:58:52.010Z,0
2022-11-10T02:00:58.767Z,0
2022-11-10T02:03:04.221Z,0
2022-11-10T02:05:10.349Z,0
2022-11-10T02:06:14.047Z,0
2022-11-10T02:08:20.562Z,0
2022-11-10T02:10:27.094Z,0
2022-11-10T02:11:29.674Z,0
2022-11-10T02:12:32.196Z,0
2022-11-10T02:13:34.725Z,0
2022-11-10T02:15:41.247Z,0
2022-11-10T02:16:44.607Z,0
2022-11-10T02:17:47.954Z,0
2022-11-10T02:18:51.341Z,0
2022-11-10T02:20:58.109Z,0
2022-11-10T02:22:00.945Z,0
2022-11-10T02:23:03.744Z,0
2022-11-10T02:24:06.894Z,0
2022-11-10T02:26:12.793Z,0
2022-11-10T02:27:15.626Z,0
2022-11-10T02:28:18.770Z,0
2022-11-10T02:29:21.487Z,0
2022-11-10T02:31:32.439Z,0
2022-11-10T02:33:38.016Z,0
2022-11-10T02:34:40.918Z,0
2022-11-10T02:36:47.319Z,0
2022-11-10T02:38:53.316Z,0
2022-11-10T02:40:58.645Z,0
2022-11-10T02:42:01.478Z,0
2022-11-10T02:44:06.746Z,0
2022-11-10T02:46:12.052Z,0
2022-11-10T02:47:15.149Z,0
2022-11-10T02:48:17.577Z,0
2022-11-10T02:49:20.857Z,0
2022-11-10T02:51:27.786Z,0
2022-11-10T02:53:33.539Z,0
2022-11-10T02:54:36.981Z,0
2022-11-10T02:56:43.675Z,0
2022-11-10T02:58:49.303Z,0
2022-11-10T03:00:55.585Z,0
2022-11-10T03:01:58.713Z,0
2022-11-10T03:04:04.686Z,0
2022-11-10T03:06:11.011Z,0
2022-11-10T03:08:16.560Z,0
2022-11-10T03:09:19.742Z,0
2022-11-10T03:11:34.114Z,0
2022-11-10T03:14:04.497Z,0
2022-11-10T03:16:10.132Z,0
2022-11-10T03:18:16.544Z,0
2022-11-10T03:19:19.549Z,0
2022-11-10T03:20:22.488Z,0
2022-11-10T03:21:25.295Z,0
2022-11-10T03:23:31.373Z,0
2022-11-10T03:24:34.217Z,0
2022-11-10T03:25:36.991Z,0
2022-11-10T03:26:40.077Z,0
2022-11-10T03:28:46.311Z,0
2022-11-10T03:29:49.683Z,0
2022-11-10T03:30:53.338Z,0
2022-11-10T03:31:56.804Z,0
2022-11-10T03:34:03.043Z,0
2022-11-10T03:36:09.101Z,0
2022-11-10T03:37:12.479Z,0
2022-11-10T03:39:18.344Z,0
2022-11-10T03:41:23.945Z,0
2022-11-10T03:43:29.803Z,0
2022-11-10T03:44:32.525Z,0
2022-11-10T03:46:51.659Z,0
2022-11-10T03:48:58.712Z,0
2022-11-10T03:51:05.337Z,0
2022-11-10T03:52:07.777Z,0
2022-11-10T03:53:11.588Z,0
2022-11-10T03:54:14.977Z,0
2022-11-10T03:56:20.301Z,0
2022-11-10T03:57:23.417Z,0
2022-11-10T03:58:26.129Z,0
2022-11-10T03:59:28.940Z,0
2022-11-10T04:01:35.613Z,0
2022-11-10T04:02:38.799Z,0
2022-11-10T04:03:42.162Z,0
2022-11-10T04:04:45.542Z,0
2022-11-10T04:06:52.019Z,0
2022-11-10T04:07:56.178Z,0
2022-11-10T04:08:58.888Z,0
2022-11-10T04:10:01.505Z,0
2022-11-10T04:12:08.123Z,0
2022-11-10T04:13:10.935Z,0
2022-11-10T04:14:13.816Z,0
2022-11-10T04:15:17.285Z,0
2022-11-10T04:17:24.407Z,0
2022-11-10T04:18:27.526Z,0
2022-11-10T04:19:31.153Z,0
2022-11-10T04:20:33.896Z,0
2022-11-10T04:22:40.535Z,0
2022-11-10T04:24:46.713Z,0
2022-11-10T04:25:50.028Z,0
2022-11-10T04:27:56.243Z,0
2022-11-10T04:30:01.950Z,0
2022-11-10T04:31:05.049Z,0
2022-11-10T04:32:07.300Z,0
2022-11-10T04:33:10.779Z,0
2022-11-10T04:35:15.883Z,0
2022-11-10T04:36:18.705Z,0
2022-11-10T04:38:24.931Z,0
2022-11-10T04:40:31.533Z,0
2022-11-10T04:42:37.519Z,0
2022-11-10T04:43:40.586Z,0
2022-11-10T04:45:46.511Z,0
2022-11-10T04:47:52.022Z,0
2022-11-10T04:49:57.969Z,0
2022-11-10T04:51:01.421Z,0
2022-11-10T04:53:07.918Z,0
2022-11-10T04:55:15.120Z,0
2022-11-10T04:56:18.034Z,0
2022-11-10T04:57:21.006Z,0
2022-11-10T04:58:24.537Z,0
2022-11-10T05:00:31.441Z,0
2022-11-10T05:02:41.657Z,0
2022-11-10T05:03:45.313Z,0
2022-11-10T05:05:51.889Z,0
2022-11-10T05:07:58.372Z,0
2022-11-10T05:10:05.175Z,0
2022-11-10T05:11:08.895Z,0
2022-11-10T05:13:14.836Z,0
2022-11-10T05:15:20.580Z,0
2022-11-10T05:17:27.006Z,0
2022-11-10T05:18:29.878Z,0
2022-11-10T05:20:35.777Z,0
2022-11-10T05:22:50.236Z,0
2022-11-10T05:24:56.690Z,0
2022-11-10T05:25:59.685Z,0
2022-11-10T05:27:03.405Z,0
2022-11-10T05:28:06.490Z,0
2022-11-10T05:30:12.711Z,0
2022-11-10T05:32:19.565Z,0
2022-11-10T05:33:25.704Z,0
2022-11-10T05:35:31.895Z,0
2022-11-10T05:37:37.827Z,0
2022-11-10T05:39:48.905Z,0
2022-11-10T05:40:52.085Z,0
2022-11-10T05:42:57.389Z,0
2022-11-10T05:45:03.935Z,0
2022-11-10T05:47:10.255Z,0
2022-11-10T05:48:13.070Z,0
2022-11-10T05:50:18.624Z,0
2022-11-10T05:52:25.158Z,0
2022-11-10T05:54:31.449Z,0
2022-11-10T05:55:34.453Z,0
2022-11-10T05:57:39.962Z,0
2022-11-10T05:59:44.663Z,0
2022-11-10T06:01:50.630Z,0
2022-11-10T06:02:53.942Z,0
2022-11-10T06:04:59.827Z,0
2022-11-10T06:07:06.069Z,0
2022-11-10T06:08:09.463Z,0
2022-11-10T06:09:12.629Z,0
2022-11-10T06:10:15.666Z,0
2022-11-10T06:12:22.272Z,0
2022-11-10T06:14:30.083Z,0
2022-11-10T06:15:33.521Z,0
2022-11-10T06:17:39.366Z,0
2022-11-10T06:19:44.364Z,1
2022-11-10T06:21:57.120Z,1
2022-11-10T06:23:10.458Z,2
2022-11-10T06:24:13.565Z,2
2022-11-10T06:25:16.398Z,2
2022-11-10T06:27:22.600Z,3
2022-11-10T06:28:26.628Z,3
2022-11-10T06:29:29.719Z,4
2022-11-10T06:30:32.436Z,4
2022-11-10T06:32:38.959Z,5
2022-11-10T06:34:44.022Z,5
2022-11-10T06:35:47.637Z,6
2022-11-10T06:37:54.432Z,6
2022-11-10T06:39:59.706Z,6
2022-11-10T06:42:06.192Z,8
2022-11-10T06:43:09.014Z,10
2022-11-10T06:45:15.055Z,12
2022-11-10T06:47:20.764Z,13
2022-11-10T06:49:26.979Z,11
2022-11-10T06:50:30.132Z,10
2022-11-10T06:52:35.937Z,11
2022-11-10T06:54:41.171Z,13
2022-11-10T06:55:43.917Z,13
2022-11-10T06:56:47.131Z,11
2022-11-10T06:57:50.211Z,13
2022-11-10T06:59:55.958Z,13
2022-11-10T07:00:59.492Z,12
2022-11-10T07:02:02.679Z,14
2022-11-10T07:03:05.476Z,13
2022-11-10T07:04:22.873Z,14
2022-11-10T07:05:25.612Z,16
2022-11-10T07:06:28.856Z,18
2022-11-10T07:07:32.044Z,17
2022-11-10T07:08:34.865Z,19
2022-11-10T07:10:39.988Z,22
2022-11-10T07:11:42.798Z,28
2022-11-10T07:12:46.165Z,24
2022-11-10T07:13:48.766Z,22
2022-11-10T07:15:54.455Z,16
2022-11-10T07:16:57.253Z,18
2022-11-10T07:18:00.150Z,16
2022-11-10T07:19:02.583Z,16
2022-11-10T07:21:08.817Z,18
2022-11-10T07:22:13.287Z,21
2022-11-10T07:23:16.563Z,18
2022-11-10T07:24:19.337Z,22
2022-11-10T07:26:26.507Z,17
2022-11-10T07:28:33.151Z,18
2022-11-10T07:29:35.636Z,19
2022-11-10T07:31:42.165Z,17
2022-11-10T07:33:56.610Z,16
2022-11-10T07:36:02.446Z,17
2022-11-10T07:37:05.279Z,20
2022-11-10T07:39:11.309Z,28
2022-11-10T07:41:17.336Z,15
2022-11-10T07:43:26.019Z,14
2022-11-10T07:44:29.416Z,16
2022-11-10T07:45:33.064Z,21
2022-11-10T07:46:36.536Z,28
2022-11-10T07:48:43.883Z,32
2022-11-10T07:49:47.591Z,26
2022-11-10T07:50:50.681Z,27
2022-11-10T07:51:53.239Z,34
2022-11-10T07:54:00.005Z,54
2022-11-10T07:55:03.081Z,36
2022-11-10T07:56:06.558Z,39
2022-11-10T07:57:09.984Z,54
2022-11-10T07:59:16.526Z,65
2022-11-10T08:00:19.925Z,78
2022-11-10T08:01:23.299Z,71
2022-11-10T08:02:26.722Z,80
2022-11-10T08:04:32.173Z,80
2022-11-10T08:06:39.879Z,82
2022-11-10T08:07:44.136Z,101
2022-11-10T08:08:47.923Z,122
2022-11-10T08:09:50.700Z,124
2022-11-10T08:11:57.033Z,112
2022-11-10T08:13:00.663Z,107
2022-11-10T08:14:03.824Z,129
2022-11-10T08:15:07.283Z,118
2022-11-10T08:17:14.012Z,93
2022-11-10T08:18:17.387Z,98
2022-11-10T08:19:20.228Z,91
2022-11-10T08:20:23.381Z,81
2022-11-10T08:22:29.989Z,79
2022-11-10T08:23:33.401Z,48
2022-11-10T08:24:36.870Z,37
2022-11-10T08:25:40.043Z,39
2022-11-10T08:27:45.344Z,46
2022-11-10T08:28:48.704Z,43
2022-11-10T08:29:51.810Z,44
2022-11-10T08:30:55.222Z,45
2022-11-10T08:33:01.791Z,39
2022-11-10T08:35:08.396Z,37
2022-11-10T08:36:11.135Z,42
2022-11-10T08:38:18.002Z,50
2022-11-10T08:39:41.687Z,59
2022-11-10T08:40:44.730Z,79
2022-11-10T08:42:51.414Z,260
2022-11-10T08:44:57.287Z,129
2022-11-10T08:46:00.320Z,72
2022-11-10T08:48:06.679Z,269
2022-11-10T08:50:12.859Z,114
2022-11-10T08:52:18.458Z,143
2022-11-10T08:53:23.852Z,146
2022-11-10T08:55:30.920Z,94
2022-11-10T08:57:38.184Z,54
2022-11-10T08:58:55.459Z,81
2022-11-10T08:59:58.555Z,70
2022-11-10T09:02:05.408Z,63
2022-11-10T09:03:09.061Z,81
2022-11-10T09:05:15.932Z,95
2022-11-10T09:07:21.632Z,57
2022-11-10T09:08:24.530Z,65
2022-11-10T09:09:27.906Z,60
2022-11-10T09:10:30.515Z,52
2022-11-10T09:12:37.207Z,96
2022-11-10T09:14:43.631Z,89
2022-11-10T09:15:47.270Z,86
2022-11-10T09:17:53.612Z,175
2022-11-10T09:20:01.243Z,48
2022-11-10T09:22:07.265Z,70
2022-11-10T09:23:09.783Z,98
2022-11-10T09:25:15.544Z,121
2022-11-10T09:27:21.931Z,95
2022-11-10T09:29:27.313Z,74
2022-11-10T09:30:31.159Z,51
2022-11-10T09:32:37.490Z,49
2022-11-10T09:34:53.823Z,43
2022-11-10T09:37:00.640Z,43
2022-11-10T09:38:04.094Z,67
2022-11-10T09:40:14.980Z,48
2022-11-10T09:41:18.638Z,48
2022-11-10T09:42:21.985Z,66
2022-11-10T09:43:26.290Z,60
2022-11-10T09:45:41.155Z,55
2022-11-10T09:48:02.977Z,53
2022-11-10T09:49:06.358Z,60
2022-11-10T09:51:13.124Z,47
2022-11-10T09:53:19.437Z,41
2022-11-10T09:54:21.986Z,45
2022-11-10T09:56:28.230Z,32
2022-11-10T09:58:34.646Z,33
2022-11-10T09:59:38.164Z,36
2022-11-10T10:01:44.406Z,38
2022-11-10T10:03:50.759Z,63
2022-11-10T10:04:54.807Z,79
2022-11-10T10:07:14.396Z,70
2022-11-10T10:09:21.032Z,65
2022-11-10T10:10:24.562Z,66
2022-11-10T10:12:30.083Z,124
2022-11-10T10:13:32.900Z,143
2022-11-10T10:15:39.894Z,102
2022-11-10T10:17:45.173Z,77
2022-11-10T10:19:50.527Z,88
2022-11-10T10:20:53.933Z,101
2022-11-10T10:23:01.460Z,79
2022-11-10T10:24:23.470Z,71
2022-11-10T10:25:26.762Z,99
2022-11-10T10:26:29.273Z,82
2022-11-10T10:28:35.938Z,84
2022-11-10T10:30:43.103Z,85
2022-11-10T10:32:49.105Z,82
2022-11-10T10:33:52.181Z,97
2022-11-10T10:35:59.253Z,80
2022-11-10T10:38:05.428Z,70
2022-11-10T10:39:09.178Z,90
2022-11-10T10:41:24.614Z,105
2022-11-10T10:42:27.714Z,117
2022-11-10T10:43:30.595Z,110
2022-11-10T10:44:33.424Z,132
2022-11-10T10:46:39.935Z,84
2022-11-10T10:47:43.285Z,83
2022-11-10T10:49:31.953Z,64
2022-11-10T10:51:38.502Z,69
2022-11-10T10:52:41.892Z,68
2022-11-10T10:54:49.095Z,67
2022-11-10T10:55:52.187Z,65
2022-11-10T10:57:59.082Z,59
2022-11-10T11:00:05.311Z,58
2022-11-10T11:01:09.582Z,54
2022-11-10T11:03:15.531Z,52
2022-11-10T11:05:21.430Z,44
2022-11-10T11:07:27.434Z,61
2022-11-10T11:08:30.903Z,55
2022-11-10T11:10:37.599Z,69
2022-11-10T11:11:41.263Z,83
2022-11-10T11:12:44.065Z,76
2022-11-10T11:13:48.316Z,92
2022-11-10T11:15:53.839Z,108
2022-11-10T11:16:56.978Z,144
2022-11-10T11:18:00.312Z,114
2022-11-10T11:19:03.407Z,118
2022-11-10T11:21:09.461Z,128
2022-11-10T11:22:13.217Z,104
2022-11-10T11:24:20.272Z,61
2022-11-10T11:25:23.095Z,50
2022-11-10T11:26:26.170Z,40
2022-11-10T11:27:29.544Z,41
2022-11-10T11:29:36.861Z,37
2022-11-10T11:30:39.423Z,54
2022-11-10T11:32:48.986Z,73
2022-11-10T11:34:54.460Z,81
2022-11-10T11:35:56.972Z,79
2022-11-10T11:38:02.821Z,42
2022-11-10T11:39:06.131Z,55
2022-11-10T11:40:09.332Z,74
2022-11-10T11:41:12.351Z,127
2022-11-10T11:42:15.798Z,113
2022-11-10T11:44:22.243Z,94
2022-11-10T11:45:24.962Z,88
2022-11-10T11:47:31.152Z,128
2022-11-10T11:48:34.462Z,127
2022-11-10T11:50:41.404Z,207
2022-11-10T11:51:44.418Z,88
2022-11-10T11:53:50.948Z,121
2022-11-10T11:55:57.534Z,81
2022-11-10T11:57:01.217Z,69
2022-11-10T11:59:07.494Z,66
2022-11-10T12:01:14.569Z,78
2022-11-10T12:02:18.507Z,77
2022-11-10T12:04:24.913Z,82
2022-11-10T12:05:28.339Z,80
2022-11-10T12:06:32.014Z,76
2022-11-10T12:07:35.107Z,85
2022-11-10T12:09:40.513Z,152
2022-11-10T12:10:45.902Z,180
2022-11-10T12:12:52.600Z,127
2022-11-10T12:13:56.045Z,130
2022-11-10T12:16:01.577Z,150
2022-11-10T12:17:04.373Z,119
2022-11-10T12:19:10.806Z,127
2022-11-10T12:21:18.096Z,137
2022-11-10T12:22:21.445Z,134
2022-11-10T12:24:27.623Z,152
2022-11-10T12:25:30.822Z,172
2022-11-10T12:26:34.127Z,147
2022-11-10T12:27:37.798Z,121
2022-11-10T12:29:44.669Z,85
2022-11-10T12:31:50.852Z,80
2022-11-10T12:32:53.837Z,86
2022-11-10T12:35:00.650Z,82
2022-11-10T12:37:07.277Z,68
2022-11-10T12:38:10.350Z,73
2022-11-10T12:40:17.060Z,84
2022-11-10T12:42:23.349Z,192
2022-11-10T12:43:27.015Z,209
2022-11-10T12:45:33.170Z,213
2022-11-10T12:47:39.214Z,155
2022-11-10T12:48:42.680Z,147
2022-11-10T12:50:48.572Z,127
2022-11-10T12:52:55.404Z,126
2022-11-10T12:53:58.214Z,120
2022-11-10T12:56:04.175Z,117
2022-11-10T12:57:07.004Z,111
2022-11-10T12:58:10.139Z,110
2022-11-10T12:59:13.231Z,96
2022-11-10T13:00:30.335Z,97
2022-11-10T13:01:34.405Z,96
2022-11-10T13:02:37.854Z,100
2022-11-10T13:03:40.926Z,96
2022-11-10T13:04:43.720Z,103
2022-11-10T13:06:50.294Z,116
2022-11-10T13:08:56.744Z,106
2022-11-10T13:09:59.890Z,105
2022-11-10T13:12:05.557Z,105
2022-11-10T13:14:11.299Z,149
2022-11-10T13:15:14.227Z,158
2022-11-10T13:17:21.220Z,119
2022-11-10T13:19:28.411Z,80
2022-11-10T13:20:34.379Z,71
2022-11-10T13:22:39.770Z,50
2022-11-10T13:24:46.442Z,37
2022-11-10T13:25:50.493Z,40
2022-11-10T13:26:53.886Z,42
2022-11-10T13:27:57.556Z,45
2022-11-10T13:30:04.159Z,37
2022-11-10T13:31:07.336Z,33
2022-11-10T13:33:14.045Z,34
2022-11-10T13:35:20.858Z,51
2022-11-10T13:36:23.651Z,53
2022-11-10T13:38:29.459Z,50
2022-11-10T13:40:35.773Z,46
2022-11-10T13:41:39.058Z,48
2022-11-10T13:42:48.755Z,44
2022-11-10T13:43:51.555Z,40
2022-11-10T13:45:58.652Z,45
2022-11-10T13:47:01.574Z,43
2022-11-10T13:49:16.964Z,35
2022-11-10T13:51:23.409Z,32
2022-11-10T13:52:26.752Z,34
2022-11-10T13:54:33.356Z,35
2022-11-10T13:56:39.785Z,41
2022-11-10T13:57:42.229Z,43
2022-11-10T13:59:47.233Z,35
2022-11-10T14:01:53.708Z,30
2022-11-10T14:02:58.034Z,27
2022-11-10T14:04:01.999Z,22
2022-11-10T14:05:05.068Z,22
2022-11-10T14:07:11.513Z,22
2022-11-10T14:08:14.984Z,20
2022-11-10T14:10:20.122Z,18
2022-11-10T14:12:27.622Z,16
2022-11-10T14:13:31.073Z,14
2022-11-10T14:15:37.023Z,14
2022-11-10T14:17:43.330Z,16
2022-11-10T14:18:46.527Z,17
2022-11-10T14:20:53.725Z,18
2022-11-10T14:23:03.426Z,17
2022-11-10T14:24:07.083Z,15
2022-11-10T14:26:13.773Z,13
2022-11-10T14:28:23.808Z,13
2022-11-10T14:29:26.856Z,13
2022-11-10T14:31:33.035Z,9
2022-11-10T14:33:40.441Z,11
2022-11-10T14:34:43.719Z,13
2022-11-10T14:35:47.025Z,13
2022-11-10T14:36:50.866Z,13
2022-11-10T14:38:57.319Z,11
2022-11-10T14:40:00.501Z,11
2022-11-10T14:41:03.938Z,10
2022-11-10T14:42:06.449Z,9
2022-11-10T14:44:13.469Z,8
2022-11-10T14:45:17.116Z,8
2022-11-10T14:46:20.556Z,8
2022-11-10T14:47:23.547Z,8
2022-11-10T14:49:31.312Z,7
2022-11-10T14:50:34.821Z,6
2022-11-10T14:52:42.025Z,5
2022-11-10T14:54:47.423Z,5
2022-11-10T14:57:00.344Z,6
2022-11-10T14:58:03.225Z,6
2022-11-10T15:00:10.010Z,5
2022-11-10T15:02:16.776Z,4
2022-11-10T15:03:19.807Z,4
2022-11-10T15:05:26.102Z,4
2022-11-10T15:07:32.329Z,4
2022-11-10T15:08:35.508Z,3
2022-11-10T15:09:38.246Z,3
2022-11-10T15:10:41.150Z,3
2022-11-10T15:11:43.962Z,3
2022-11-10T15:12:46.204Z,2
2022-11-10T15:13:49.281Z,2
2022-11-10T15:15:57.614Z,2
2022-11-10T15:17:00.538Z,2
2022-11-10T15:18:03.893Z,2
2022-11-10T15:19:07.540Z,2
2022-11-10T15:21:14.124Z,1
2022-11-10T15:22:17.677Z,1
2022-11-10T15:24:24.307Z,1
2022-11-10T15:26:29.911Z,1
2022-11-10T15:28:36.756Z,1
2022-11-10T15:29:39.773Z,1
2022-11-10T15:31:46.289Z,0
2022-11-10T15:33:52.899Z,0
2022-11-10T15:34:55.688Z,0
2022-11-10T15:37:01.886Z,0
2022-11-10T15:39:08.962Z,0
2022-11-10T15:40:13.434Z,0
2022-11-10T15:42:20.267Z,0
2022-11-10T15:43:26.688Z,0
2022-11-10T15:44:30.914Z,0
2022-11-10T15:45:33.420Z,0
2022-11-10T15:47:39.860Z,0
2022-11-10T15:48:42.741Z,0
2022-11-10T15:50:49.397Z,0
2022-11-10T15:52:56.364Z,0
2022-11-10T15:55:02.601Z,0
2022-11-10T15:56:05.760Z,0
2022-11-10T15:58:11.531Z,0
2022-11-10T16:00:16.699Z,0
2022-11-10T16:02:23.222Z,0
2022-11-10T16:03:26.600Z,0
2022-11-10T16:05:32.478Z,0
2022-11-10T16:07:39.684Z,0
2022-11-10T16:09:45.777Z,0
2022-11-10T16:10:48.697Z,0
2022-11-10T16:12:55.946Z,0
2022-11-10T16:15:01.997Z,0
2022-11-10T16:16:05.156Z,0
2022-11-10T16:18:11.704Z,0
2022-11-10T16:20:18.432Z,0
2022-11-10T16:22:24.749Z,0
2022-11-10T16:23:27.566Z,0
2022-11-10T16:25:34.591Z,0
2022-11-10T16:27:40.758Z,0
2022-11-10T16:28:43.560Z,0
2022-11-10T16:29:46.753Z,0
2022-11-10T16:30:50.118Z,0
2022-11-10T16:32:56.109Z,0
2022-11-10T16:33:59.636Z,0
2022-11-10T16:35:03.013Z,0
2022-11-10T16:36:06.290Z,0
2022-11-10T16:38:12.700Z,0
2022-11-10T16:39:16.177Z,0
2022-11-10T16:40:19.565Z,0
2022-11-10T16:41:22.853Z,0
2022-11-10T16:43:29.626Z,0
2022-11-10T16:45:35.144Z,0
2022-11-10T16:46:38.889Z,0
2022-11-10T16:48:44.511Z,0
2022-11-10T16:50:52.033Z,0
2022-11-10T16:51:55.687Z,0
2022-11-10T16:52:58.850Z,0
2022-11-10T16:54:02.474Z,0
2022-11-10T16:56:09.745Z,0
2022-11-10T16:57:13.426Z,0
2022-11-10T16:58:16.613Z,0
2022-11-10T16:59:20.725Z,0
2022-11-10T17:01:27.528Z,0
2022-11-10T17:02:30.285Z,0
2022-11-10T17:03:33.112Z,0
2022-11-10T17:04:35.279Z,0
2022-11-10T17:06:42.906Z,0
2022-11-10T17:07:46.137Z,0
2022-11-10T17:08:49.779Z,0
2022-11-10T17:09:53.207Z,0
2022-11-10T17:11:59.273Z,0
2022-11-10T17:14:05.319Z,0
2022-11-10T17:15:08.592Z,0
2022-11-10T17:17:14.859Z,0
2022-11-10T17:19:21.098Z,0
2022-11-10T17:20:24.547Z,0
2022-11-10T17:21:35.391Z,0
2022-11-10T17:22:38.687Z,0
2022-11-10T17:24:45.072Z,0
2022-11-10T17:26:50.774Z,0
2022-11-10T17:27:53.699Z,0
2022-11-10T17:28:57.550Z,0
2022-11-10T17:30:01.054Z,0
2022-11-10T17:32:07.698Z,0
2022-11-10T17:33:10.840Z,0
2022-11-10T17:34:13.992Z,0
2022-11-10T17:35:16.788Z,0
2022-11-10T17:37:24.262Z,0
2022-11-10T17:38:27.501Z,0
2022-11-10T17:39:30.514Z,0
2022-11-10T17:40:34.145Z,0
2022-11-10T17:42:40.383Z,0
2022-11-10T17:44:51.276Z,0
2022-11-10T17:45:54.226Z,0
2022-11-10T17:48:00.800Z,0
2022-11-10T17:50:08.476Z,0
2022-11-10T17:51:10.985Z,0
2022-11-10T17:53:17.468Z,0
2022-11-10T17:55:23.210Z,0
2022-11-10T17:57:30.181Z,0
2022-11-10T17:58:32.900Z,0
2022-11-10T18:00:39.518Z,0
2022-11-10T18:02:55.840Z,0
2022-11-10T18:05:02.432Z,0
2022-11-10T18:06:05.058Z,0
2022-11-10T18:08:11.301Z,0
2022-11-10T18:10:18.181Z,0
2022-11-10T18:12:29.522Z,0
2022-11-10T18:13:32.042Z,0
2022-11-10T18:15:37.719Z,0
2022-11-10T18:17:44.855Z,0
2022-11-10T18:19:50.955Z,0
2022-11-10T18:20:53.203Z,0
2022-11-10T18:22:58.495Z,0
2022-11-10T18:25:04.945Z,0
2022-11-10T18:27:11.642Z,0
2022-11-10T18:28:15.189Z,0
2022-11-10T18:30:21.472Z,0
2022-11-10T18:32:27.508Z,0
2022-11-10T18:33:30.689Z,0
2022-11-10T18:34:34.167Z,0
2022-11-10T18:35:36.206Z,0
2022-11-10T18:37:41.626Z,0
2022-11-10T18:38:44.291Z,0
2022-11-10T18:39:47.355Z,0
2022-11-10T18:40:50.583Z,0
2022-11-10T18:42:56.646Z,0
2022-11-10T18:43:59.168Z,0
2022-11-10T18:45:01.999Z,0
2022-11-10T18:46:04.526Z,0
2022-11-10T18:48:11.275Z,0
2022-11-10T18:49:15.130Z,0
2022-11-10T18:50:18.394Z,0
2022-11-10T18:51:21.473Z,0
2022-11-10T18:53:28.576Z,0
2022-11-10T18:55:35.647Z,0
2022-11-10T18:56:39.240Z,0
2022-11-10T18:57:42.955Z,0
2022-11-10T18:58:45.949Z,0
2022-11-10T19:00:51.543Z,0
2022-11-10T19:02:58.479Z,0
2022-11-10T19:04:02.034Z,0
2022-11-10T19:06:08.753Z,0
2022-11-10T19:08:14.985Z,0
2022-11-10T19:10:21.428Z,0
2022-11-10T19:11:24.884Z,0
2022-11-10T19:13:33.482Z,0
2022-11-10T19:15:39.152Z,0
2022-11-10T19:17:45.310Z,0
2022-11-10T19:18:48.529Z,0
2022-11-10T19:19:58.638Z,0
2022-11-10T19:21:01.478Z,0
2022-11-10T19:23:07.923Z,0
2022-11-10T19:25:13.454Z,0
2022-11-10T19:26:25.012Z,0
2022-11-10T19:27:27.719Z,0
2022-11-10T19:28:31.235Z,0
2022-11-10T19:30:37.208Z,0
2022-11-10T19:31:40.048Z,0
2022-11-10T19:32:42.791Z,0
2022-11-10T19:33:45.863Z,0
2022-11-10T19:35:52.682Z,0
2022-11-10T19:37:59.566Z,0
2022-11-10T19:39:03.217Z,0
2022-11-10T19:41:08.950Z,0
2022-11-10T19:43:15.296Z,0
2022-11-10T19:45:21.654Z,0
2022-11-10T19:46:24.786Z,0
2022-11-10T19:48:31.117Z,0
2022-11-10T19:50:37.838Z,0
2022-11-10T19:52:43.678Z,0
2022-11-10T19:53:47.474Z,0
2022-11-10T19:55:53.821Z,0
2022-11-10T19:57:59.985Z,0
2022-11-10T20:00:06.728Z,0
2022-11-10T20:01:10.645Z,0
2022-11-10T20:03:18.296Z,0
2022-11-10T20:05:23.244Z,0
2022-11-10T20:07:29.981Z,0
2022-11-10T20:08:32.554Z,0
2022-11-10T20:10:39.644Z,0
2022-11-10T20:12:46.217Z,0
2022-11-10T20:14:59.517Z,0
2022-11-10T20:16:02.904Z,0
2022-11-10T20:18:09.663Z,0
2022-11-10T20:20:15.532Z,0
2022-11-10T20:21:18.605Z,0
2022-11-10T20:22:22.128Z,0
2022-11-10T20:23:26.855Z,0
2022-11-10T20:25:33.634Z,0
2022-11-10T20:27:39.588Z,0
2022-11-10T20:28:42.765Z,0
2022-11-10T20:30:47.956Z,0
2022-11-10T20:32:54.759Z,0
2022-11-10T20:35:00.351Z,0
2022-11-10T20:36:02.857Z,0
2022-11-10T20:38:09.750Z,0
2022-11-10T20:40:46.725Z,0
2022-11-10T20:42:53.483Z,0
2022-11-10T20:44:59.875Z,0
2022-11-10T20:46:03.000Z,0
2022-11-10T20:48:11.389Z,0
2022-11-10T20:50:26.015Z,0
2022-11-10T20:51:29.105Z,0
2022-11-10T20:52:31.922Z,0
2022-11-10T20:53:34.749Z,0
2022-11-10T20:55:56.028Z,0
2022-11-10T20:58:01.956Z,0
2022-11-10T20:59:04.854Z,0
2022-11-10T21:00:06.772Z,0
2022-11-10T21:01:10.201Z,0
2022-11-10T21:03:16.960Z,0
2022-11-10T21:04:19.953Z,0
2022-11-10T21:05:23.296Z,0
2022-11-10T21:06:26.643Z,0
2022-11-10T21:08:32.158Z,0
2022-11-10T21:09:35.341Z,0
2022-11-10T21:10:39.099Z,0
2022-11-10T21:11:42.237Z,0
2022-11-10T21:13:48.566Z,0
2022-11-10T21:14:51.397Z,0
2022-11-10T21:15:54.470Z,0
2022-11-10T21:16:58.566Z,0
2022-11-10T21:19:05.049Z,0
2022-11-10T21:20:07.769Z,0
2022-11-10T21:21:10.575Z,0
2022-11-10T21:22:13.653Z,0
2022-11-10T21:24:20.617Z,0
2022-11-10T21:26:27.578Z,0
2022-11-10T21:27:31.427Z,0
2022-11-10T21:28:34.889Z,0
2022-11-10T21:29:38.590Z,0
2022-11-10T21:31:44.410Z,0
2022-11-10T21:33:50.917Z,0
2022-11-10T21:34:54.459Z,0
2022-11-10T21:37:01.255Z,0
2022-11-10T21:39:05.670Z,0
2022-11-10T21:41:11.755Z,0
2022-11-10T21:42:15.236Z,0
2022-11-10T21:44:21.642Z,0
2022-11-10T21:46:28.151Z,0
2022-11-10T21:48:34.057Z,0
2022-11-10T21:49:37.370Z,0
2022-11-10T21:51:44.000Z,0
2022-11-10T21:53:49.240Z,0
2022-11-10T21:55:54.484Z,0
2022-11-10T21:56:57.676Z,0
2022-11-10T21:59:04.125Z,0
2022-11-10T22:01:11.064Z,0
2022-11-10T22:03:16.682Z,0
2022-11-10T22:04:20.120Z,0
2022-11-10T22:06:26.717Z,0
2022-11-10T22:08:32.654Z,0
2022-11-10T22:10:39.849Z,0
2022-11-10T22:11:43.182Z,0
2022-11-10T22:13:50.196Z,0
2022-11-10T22:15:56.912Z,0
2022-11-10T22:18:02.294Z,0
2022-11-10T22:19:05.390Z,0
2022-11-10T22:21:11.643Z,0
2022-11-10T22:23:17.485Z,0
2022-11-10T22:25:23.225Z,0
2022-11-10T22:26:26.953Z,0
2022-11-10T22:28:34.003Z,0
2022-11-10T22:30:39.729Z,0
2022-11-10T22:32:45.995Z,0
2022-11-10T22:33:48.783Z,0
2022-11-10T22:35:54.841Z,0
2022-11-10T22:38:01.161Z,0
2022-11-10T22:40:08.956Z,0
2022-11-10T22:41:12.691Z,0
2022-11-10T22:43:18.989Z,0
2022-11-10T22:45:29.754Z,0
2022-11-10T22:47:35.587Z,0
2022-11-10T22:48:38.932Z,0
2022-11-10T22:49:42.004Z,0
2022-11-10T22:50:45.359Z,0
2022-11-10T22:52:52.040Z,0
2022-11-10T22:53:55.710Z,0
2022-11-10T22:54:58.702Z,0
2022-11-10T22:56:01.855Z,0
2022-11-10T22:58:07.717Z,0
2022-11-10T22:59:10.729Z,0
2022-11-10T23:00:14.080Z,0
2022-11-10T23:01:18.327Z,0
2022-11-10T23:03:26.535Z,0
2022-11-10T23:05:32.401Z,0
2022-11-10T23:06:35.882Z,0
2022-11-10T23:08:42.381Z,0
2022-11-10T23:10:49.436Z,0
2022-11-10T23:12:55.701Z,0
2022-11-10T23:13:59.052Z,0
2022-11-10T23:16:04.509Z,0
2022-11-10T23:18:11.605Z,0
2022-11-10T23:20:17.932Z,0
2022-11-10T23:21:21.070Z,0
2022-11-10T23:23:27.940Z,0